Milford, Utah Weather observations

Data are for observation ending at time listed.
 Day   Time    Ave.   Ave.  Ave.  Vector   Max.   Stn.    Total    Solar   Ave.  
  of    of     Air    Rel.  Wind   Wind    Wind   Baro.  Precip.   Rad.    Soil  
Year   Day     Temp.  Hum.  Speed  Dir.    Gust   Pres.                    Temp. 
2014   (MST)    F      %     mph   deg.    mph     mb.     in.     W/m2     F   
------------------------------------------------------------------------------
 261   15:50   86.2    25    3.6   216     11.1   844.7    0.00     431    72.3
 261   16:00   85.6    25    3.9   198      9.3   844.7    0.00     405    99999.0
 261   16:10   85.6    25    3.2   206      8.8   844.6    0.00     381    72.4
 261   16:20   84.8    25    4.3   192     11.9   844.5    0.00     357    72.5
 261   16:30   84.1    26    3.4   214      9.6   844.4    0.00     328    72.6
 261   16:40   83.5    26    4.2   203      9.4   844.0    0.01     301    72.7
 261   16:50   83.5    26    3.4   210      7.7   843.5    0.00     271    72.8
 261   17:00   83.5    25    3.6   200      8.8   843.2    0.00     246    72.9
 261   17:10   83.1    26    3.8   207      9.1   843.3    0.00     220    72.9
 261   17:20   82.5    26    4.4   198      8.7   843.5    0.00     194    72.9
 261   17:30   81.7    28    3.8   201      8.6   843.5    0.00     130    99999.0
 261   17:40   81.2    28    3.4   196     10.4   843.5    0.00      16    73.0
 261   17:50   80.9    29    3.5   206     10.4   843.5    0.00      15    73.1
 261   18:00   80.4    29    2.9   210      7.5   843.5    0.00      14    73.1
 261   18:10   80.1    30    2.8   206      7.0   843.5    0.00       9    73.2
 261   18:20   79.6    30    2.2   208      6.3   843.4    0.00       9    73.3
 261   18:30   79.1    30    2.2   217      6.4   843.3    0.00       6    73.4
 261   18:40   78.2    32    1.2   209      3.2   843.3    0.00       3    99999.0
 261   18:50   77.6    32    1.4   215      3.4   843.3    0.00       3    73.4
 261   19:00   77.0    33    0.9   208      3.4   843.3    0.00       0    73.5
 261   19:10   76.0    34    0.6   196      1.9   843.3    0.00       0    73.5
 261   19:20   74.8    37    1.0   189      2.3   843.3    0.00       0    73.6
 261   19:30   73.0    41    2.0   180      4.5   843.4    0.00       0    73.6
 261   19:40   70.9    46    1.9   169      5.5   843.4    0.00       0    73.7
 261   19:50   69.8    49    0.6   204      2.5   843.5    0.00       0    73.7
 261   20:00   69.3    50    1.3   192      3.2   843.5    0.00       0    73.8
 261   20:10   69.0    51    0.2   239      1.9   843.6    0.00       0    73.8
 261   20:20   68.8    52    0.6   189      2.8   843.6    0.00       0    73.8
 261   20:30   68.5    52    1.1   185      3.6   843.5    0.00       0    73.8
 261   20:40   69.0    52    1.4   177      4.1   843.5    0.00       0    73.8
 261   20:50   69.9    52    1.5   173      3.8   843.6    0.00       0    73.8
 261   21:00   70.3    52    2.0   176      4.6   843.7    0.00       0    73.8
 261   21:10   70.6    52    1.6   186      4.3   843.8    0.00       0    99999.0
 261   21:20   70.6    52    1.4   181      3.8   843.9    0.00       0    73.8
 261   21:30   70.6    52    2.8   168      6.1   844.1    0.00       0    73.8
 261   21:40   70.0    53    2.2   164      5.3   844.2    0.00       0    73.8
 261   21:50   69.7    53    2.9   164      5.8   844.3    0.00       0    73.8
 261   22:00   69.5    53    2.9   182      5.3   844.3    0.00       0    73.8
 261   22:10   69.7    52    2.9   190      4.5   844.4    0.00       0    99999.0
 261   22:20   69.7    52    2.6   191      4.1   844.5    0.00       0    99999.0
 261   22:30   69.1    53    3.0   186      4.5   844.5    0.00       0    73.8
 261   22:40   69.0    53    3.3   186      4.7   844.4    0.00       0    73.8
 261   22:50   68.9    53    3.4   188      6.4   844.4    0.00       0    73.8
 261   23:00   68.1    54    3.0   192      5.3   844.4    0.00       0    73.8
 261   23:10   67.1    56    2.1   192      4.7   844.4    0.00       0    73.8
 261   23:20   67.0    56    1.4   196      2.9   844.5    0.00       0    73.8
 261   23:30   67.1    55    0.8   228      2.0   844.6    0.00       0    73.8
 261   23:40   67.6    54    0.9   230      2.5   844.6    0.00       0    73.7
 261   23:50   67.8    53    1.3   236      3.4   844.7    0.00       0    73.7
 262    0:00   67.7    54    1.5   206      3.2   844.7    0.00       0    99999.0
 262    0:10   66.9    55    1.6   205      3.7   844.8    0.00       0    73.7
 262    0:20   66.7    56    1.7   201      3.4   844.8    0.00       0    73.7
 262    0:30   66.7    56    1.5   202      2.6   844.8    0.00       0    73.7
 262    0:40   66.8    56    1.0   204      2.3   844.9    0.00       0    73.7
 262    0:50   66.9    55    0.9   230      2.6   845.0    0.00       0    73.7
 262    1:00   67.2    55    1.6   237      3.7   845.1    0.00       0    99999.0
 262    1:10   67.2    55    1.1   240      2.9   845.2    0.00       0    73.6
 262    1:20   67.1    55    0.7   256      1.8   845.2    0.00       0    99999.0
 262    1:30   66.7    55    1.6   257      4.3   845.3    0.00       0    73.6
 262    1:40   66.3    56    1.4   259      3.3   845.4    0.00       0    99999.0
 262    1:50   66.7    55    1.7   248      3.2   845.4    0.00       0    99999.0
 262    2:00   67.1    54    1.9   247      3.1   845.4    0.00       0    73.4
 262    2:10   67.2    54    1.9   244      3.7   845.4    0.00       0    99999.0
 262    2:20   67.5    53    1.2   246      2.6   845.5    0.00       0    73.4
 262    2:30   67.2    54    0.7   195      2.0   845.5    0.00       0    73.4
 262    2:40   66.0    57    2.0   168      3.6   845.6    0.00       0    99999.0
 262    2:50   64.9    59    1.1   170      1.7   845.6    0.00       0    99999.0
 262    3:00   63.8    61    1.2   183      2.1   845.6    0.00       0    73.3
 262    3:10   62.9    63    1.7   181      2.7   845.6    0.00       0    73.2
 262    3:20   62.4    63    1.3   189      3.0   845.6    0.00       0    73.2
 262    3:30   62.3    64    1.5   182      2.9   845.6    0.00       1    73.2
 262    3:40   62.2    65    0.7   200      2.0   845.5    0.00       1    73.1
 262    3:50   62.2    64    1.2   205      2.2   845.6    0.00       0    73.1
 262    4:00   62.2    65    1.2   217      1.9   845.6    0.00       1    99999.0
 262    4:10   62.4    65    0.9   187      1.5   845.6    0.00       0    99999.0
 262    4:20   61.9    66    1.1   177      2.2   845.7    0.00       0    73.1
 262    4:30   61.4    66    1.4   170      2.1   845.8    0.00       0    73.1
 262    4:40   61.3    66    1.4   183      3.3   845.9    0.00       0    73.0
 262    4:50   61.2    66    1.7   174      3.2   845.9    0.00       0    99999.0
 262    5:00   61.2    67    0.4   270      1.8   846.0    0.00       0    99999.0
 262    5:10   61.1    67    0.4   303      1.6   846.0    0.00       0    99999.0
 262    5:20   61.3    67    0.6   260      1.8   845.9    0.00       0    99999.0
 262    5:30   61.7    68    0.7   290      1.6   845.9    0.00       0    99999.0
 262    5:40   61.9    68    0.8   284      1.9   846.0    0.00       0    73.0
 262    5:50   62.2    68    1.1   284      1.7   846.1    0.00       0    72.9
 262    6:00   62.1    68    1.1   259      1.9   846.1    0.00       0    99999.0
 262    6:10   62.2    68    1.3   260      2.3   846.2    0.00       0    99999.0
 262    6:20   61.9    68    0.4   298      1.1   846.2    0.00       1    99999.0
 262    6:30   61.5    68    1.0   234      1.8   846.3    0.00       5    99999.0
 262    6:40   61.1    69    1.0   248      2.6   846.3    0.00       9    99999.0
 262    6:50   61.3    69    0.5    32      2.5   846.5    0.00      39    72.7
 262    7:00   61.5    69    0.9   192      2.7   846.7    0.00      35    72.6
 262    7:10   61.5    68    1.6   180      3.1   846.9    0.00      62    72.6
 262    7:20   62.0    67    1.7   153      2.9   847.0    0.00     123    72.5
 262    7:30   63.6    64    1.7   147      3.4   847.1    0.00     160    72.4
 262    7:40   64.6    62    1.1   119      2.6   847.3    0.00     203    72.4
 262    7:50   66.0    60    0.6   138      1.8   847.5    0.00     209    72.4
 262    8:00   66.4    59    1.7    37      4.2   847.8    0.00     240    72.4
 262    8:10   66.9    58    0.7    39      1.7   848.0    0.00     270    72.4
 262    8:20   67.9    56    1.5    42      3.3   848.1    0.00     294    72.4
 262    8:30   69.1    54    1.4    50      3.0   848.4    0.00     321    72.3
 262    8:40   71.1    50    0.9    98      3.5   848.7    0.00     341    99999.0
 262    8:50   72.5    48    1.9    31      3.6   848.9    0.00     376    99999.0
 262    9:00   71.7    48    2.3    34      5.3   849.1    0.00     402    99999.0
 262    9:10   72.8    44    2.0    26      5.0   849.3    0.00     431    72.3
 262    9:20   73.8    41    1.6    27      4.0   849.4    0.00     412    72.3
 262    9:30   74.2    39    2.2    25      4.5   849.6    0.00     366    99999.0
 262    9:40   75.2    38    2.5     8      6.0   849.7    0.00     518    99999.0
 262    9:50   75.9    36    3.0    19      5.6   849.8    0.00     519    99999.0
 262   10:00   76.0    35    3.4    18      7.6   850.0    0.00     526    72.4
 262   10:10   76.0    33    2.4    59      6.1   850.0    0.00     553    99999.0
 262   10:20   76.8    33    2.6    56      6.3   850.1    0.00     573    99999.0
 262   10:30   77.5    32    1.8    70      7.5   850.3    0.00     596    72.3
 262   10:40   78.7    31    1.0    33      3.1   850.4    0.00     629    99999.0
 262   10:50   79.6    30    1.0    50      2.9   850.4    0.00     654    72.2
 262   11:00   80.2    31    1.0   219      3.7   850.5    0.00     657    99999.0
 262   11:10   80.1    30    1.4   208      4.1   850.5    0.00     649    72.4
 262   11:20   79.8    29    1.7   222      4.5   850.4    0.00     655    99999.0
 262   11:30   80.1    28    1.6    35      3.5   850.3    0.00     667    72.3
 262   11:40   81.5    27    1.0   257      3.4   850.2    0.00     674    72.3
 262   11:50   81.1    25    2.2    55      4.6   850.2    0.00     687    99999.0
 262   12:00   82.7    26    0.6   355      3.0   850.1    0.00     687    72.3
 262   12:10   83.8    24    1.9    31      6.0   850.1    0.00     691    99999.0
 262   12:20   82.1    25    2.7    39      5.5   850.1    0.00     699    99999.0
 262   12:30   83.0    25    2.8   139      5.7   850.1    0.00     695    72.8
 262   12:40   83.2    24    3.3   154      7.1   850.1    0.00     700    99999.0
 262   12:50   82.5    26    3.9   170      7.2   850.1    0.00     696    72.4
 262   13:00   83.1    26    3.4   176      7.8   850.1    0.00     693    72.4
 262   13:10   83.0    26    3.4   187      8.0   850.1    0.00     688    72.4
 262   13:20   83.4    25    2.8   159      6.5   850.0    0.00     680    72.6
 262   13:30   83.7    25    2.4   201      5.5   849.9    0.00     668    99999.0
 262   13:40   83.4    24    4.5   164      8.7   849.9    0.00     655    99999.0
 262   13:50   84.0    24    2.5   182      6.4   849.9    0.00     646    72.6
 262   14:00   83.7    23    5.4   151     11.4   849.8    0.00     632    72.6
 262   14:10   83.7    23    4.9   145      9.6   849.7    0.00     620    72.6
 262   14:20   84.1    23    3.9   137      9.3   849.6    0.00     605    72.7
 262   14:30   84.4    23    3.1   126      7.7   849.5    0.00     506    72.8
 262   14:40   83.5    23    3.3   128      8.6   849.5    0.00     357    72.8
 262   14:50   83.6    24    3.5   161      7.9   849.3    0.00     561    73.0
 262   15:00   85.3    23    1.8   194      5.3   849.3    0.00     537    73.0
 262   15:10   84.6    22    1.7   158      3.8   849.3    0.00     376    99999.0
 262   15:20   84.1    23    3.4   186      9.1   849.3    0.00     482    99999.0
 262   15:30   85.1    22    2.4   166      8.7   849.3    0.00     469    99999.0
 262   15:40   84.7    22    2.7   118      6.6   849.2    0.00     453    73.9

Return to Milford, Utah graphs page.


Western Regional Climate Center,wrcc@dri.edu